Time;durP1;ratioP1;P1;durP2;ratioP2;P2;SDS_P1;SDS_P2;PMS_P1;PMS_P2;Temp;Humidity;BMP_temperature;BMP_pressure;BME280_temperature;BME280_humidity;BME280_pressure;Samples;Min_cycle;Max_cycle;Signal;HPM_P1;HPM_P2
2021/11/23 00:00:44;;;;;;;0.20;0.10;;;;;;;0.31;100.00;101554.78;5066520;28;20821;-74
2021/11/23 00:03:12;;;;;;;0.20;0.10;;;;;;;0.62;100.00;101554.03;5053450;28;20443;-74
2021/11/23 00:05:40;;;;;;;0.20;0.10;;;;;;;0.17;100.00;101556.94;5049331;28;20451;-77
2021/11/23 00:08:09;;;;;;;0.20;0.10;;;;;;;0.63;100.00;101555.81;5046252;28;20447;-74
2021/11/23 00:10:37;;;;;;;0.20;0.20;;;;;;;0.27;100.00;101564.22;5040898;28;20925;-74
2021/11/23 00:13:04;;;;;;;0.30;0.20;;;;;;;0.54;100.00;101569.47;5041776;28;20455;-74
2021/11/23 00:15:35;;;;;;;0.20;0.10;;;;;;;0.36;100.00;101566.25;5045927;28;20885;-74
2021/11/23 00:18:04;;;;;;;0.20;0.10;;;;;;;0.30;100.00;101577.41;5047022;28;20493;-76
2021/11/23 00:20:32;;;;;;;0.20;0.10;;;;;;;0.23;100.00;101575.41;5041166;28;20455;-74
2021/11/23 00:22:59;;;;;;;0.20;0.10;;;;;;;0.27;100.00;101569.44;5040168;28;20860;-74
2021/11/23 00:25:27;;;;;;;0.20;0.10;;;;;;;0.42;100.00;101567.38;5046397;28;20448;-74
2021/11/23 00:27:55;;;;;;;1.03;1.03;;;;;;;0.37;100.00;101573.28;5047313;28;20474;-74
2021/11/23 00:30:24;;;;;;;0.20;0.10;;;;;;;0.15;100.00;101574.28;5041503;28;20454;-74
2021/11/23 00:32:52;;;;;;;0.20;0.10;;;;;;;0.03;100.00;101576.47;5053388;28;20564;-76
2021/11/23 00:35:19;;;;;;;0.20;0.10;;;;;;;-0.10;100.00;101575.16;5045375;28;20451;-75
2021/11/23 00:37:47;;;;;;;0.20;0.10;;;;;;;0.11;100.00;101572.38;5049546;28;20498;-75
2021/11/23 00:40:15;;;;;;;0.20;0.10;;;;;;;-0.20;100.00;101573.94;5044811;28;20988;-75
2021/11/23 00:42:42;;;;;;;0.20;0.10;;;;;;;-0.13;100.00;101572.44;5046224;28;20451;-75
2021/11/23 00:45:10;;;;;;;0.20;0.10;;;;;;;-0.17;100.00;101573.16;5044124;28;20485;-75
2021/11/23 00:47:38;;;;;;;0.20;0.10;;;;;;;-0.13;100.00;101572.44;5040827;28;20447;-75
2021/11/23 00:50:07;;;;;;;0.20;0.17;;;;;;;-0.27;100.00;101574.56;5041226;28;20479;-75
2021/11/23 00:52:35;;;;;;;0.20;0.10;;;;;;;-0.46;100.00;101573.00;5055376;28;20438;-75
2021/11/23 00:55:02;;;;;;;0.20;0.10;;;;;;;-0.53;100.00;101573.63;5061021;28;20459;-75
2021/11/23 00:57:30;;;;;;;0.20;0.20;;;;;;;-0.24;100.00;101573.78;5039714;28;20555;-75
2021/11/23 00:59:56;;;;;;;0.20;0.10;;;;;;;-0.50;100.00;101583.28;5062051;28;20584;-75
2021/11/23 01:02:23;;;;;;;0.20;0.10;;;;;;;-0.45;100.00;101580.00;5053577;28;20454;-75
2021/11/23 01:04:49;;;;;;;0.20;0.10;;;;;;;-0.66;100.00;101574.00;5041448;28;20459;-75
2021/11/23 01:07:17;;;;;;;0.20;0.10;;;;;;;-0.41;100.00;101571.47;5046362;28;20472;-74
2021/11/23 01:09:44;;;;;;;0.20;0.10;;;;;;;-0.50;100.00;101571.09;5044364;28;20886;-74
2021/11/23 01:12:11;;;;;;;0.20;0.10;;;;;;;-0.59;100.00;101575.97;5033948;28;20452;-74
2021/11/23 01:14:37;;;;;;;0.20;0.10;;;;;;;-0.68;100.00;101571.31;5045178;28;20520;-74
2021/11/23 01:17:04;;;;;;;0.20;0.10;;;;;;;-0.65;100.00;101573.16;5038935;28;20494;-75
2021/11/23 01:19:31;;;;;;;0.20;0.10;;;;;;;-0.43;100.00;101559.16;5039279;28;20471;-74
2021/11/23 01:21:58;;;;;;;0.20;0.10;;;;;;;-0.38;100.00;101568.06;5046205;28;20834;-74
2021/11/23 01:24:24;;;;;;;0.20;0.20;;;;;;;-0.36;100.00;101563.78;5045523;28;20450;-74
2021/11/23 01:26:51;;;;;;;0.20;0.10;;;;;;;-0.07;100.00;101568.31;5039383;28;20508;-74
2021/11/23 01:29:18;;;;;;;0.20;0.10;;;;;;;-0.33;100.00;101566.50;5039599;28;21102;-75
2021/11/23 01:31:44;;;;;;;0.20;0.20;;;;;;;-0.36;100.00;101563.78;5048875;28;20825;-75
2021/11/23 01:34:11;;;;;;;0.20;0.10;;;;;;;-0.42;100.00;101569.66;5040133;28;20456;-75
2021/11/23 01:36:37;;;;;;;0.30;0.20;;;;;;;-0.56;100.00;101562.16;5046600;28;20504;-75
2021/11/23 01:39:04;;;;;;;0.20;0.10;;;;;;;-0.64;100.00;101575.81;5032673;28;20533;-75
2021/11/23 01:41:31;;;;;;;0.20;0.10;;;;;;;-0.54;100.00;101574.44;5039308;28;20490;-74
2021/11/23 01:43:57;;;;;;;0.20;0.10;;;;;;;-0.56;100.00;101573.47;5038059;28;20448;-74
2021/11/23 01:46:24;;;;;;;0.20;0.10;;;;;;;-0.45;100.00;101573.88;5045154;28;20505;-75
2021/11/23 01:48:50;;;;;;;0.20;0.10;;;;;;;-0.66;100.00;101568.78;5044641;28;20996;-74
2021/11/23 01:51:17;;;;;;;0.20;0.10;;;;;;;-0.39;100.00;101567.19;5038510;28;20879;-74
2021/11/23 01:53:44;;;;;;;0.20;0.10;;;;;;;-0.54;100.00;101570.94;5065909;28;20877;-74
2021/11/23 01:56:11;;;;;;;0.20;0.10;;;;;;;-0.62;100.00;101566.31;5045287;28;20945;-74
2021/11/23 01:58:38;;;;;;;0.20;0.10;;;;;;;-0.61;100.00;101569.81;5044345;28;20559;-74
2021/11/23 02:01:06;;;;;;;0.20;0.10;;;;;;;-0.63;100.00;101574.09;5039681;28;20447;-74
2021/11/23 02:03:36;;;;;;;0.20;0.10;;;;;;;-0.66;100.00;101574.88;5052418;28;20455;-75
2021/11/23 02:06:06;;;;;;;0.20;0.10;;;;;;;-0.58;100.00;101576.88;5044177;28;20440;-74
2021/11/23 02:08:33;;;;;;;0.20;0.10;;;;;;;-0.57;100.00;101579.53;5045625;28;20458;-75
2021/11/23 02:10:59;;;;;;;0.20;0.10;;;;;;;-0.55;100.00;101590.91;5040022;28;20454;-75
2021/11/23 02:13:29;;;;;;;0.20;0.10;;;;;;;-0.63;100.00;101580.22;5038641;28;20940;-76
2021/11/23 02:15:59;;;;;;;0.20;0.17;;;;;;;-0.78;100.00;101577.03;5042666;28;20968;-75
2021/11/23 02:18:27;;;;;;;0.20;0.10;;;;;;;-0.79;100.00;101579.59;5045681;28;20495;-75
2021/11/23 02:20:55;;;;;;;0.20;0.10;;;;;;;-0.94;100.00;101578.16;5044805;28;20997;-75
2021/11/23 02:23:22;;;;;;;0.20;0.10;;;;;;;-0.79;100.00;101577.84;5042706;28;20451;-75
2021/11/23 02:25:49;;;;;;;0.20;0.10;;;;;;;-0.99;100.00;101577.06;5045393;28;20459;-74
2021/11/23 02:28:16;;;;;;;0.20;0.10;;;;;;;-0.88;100.00;101576.59;5048149;28;20463;-75
2021/11/23 02:30:54;;;;;;;0.20;0.10;;;;;;;-0.87;100.00;101578.38;5045252;28;20454;-75
2021/11/23 02:33:24;;;;;;;0.20;0.10;;;;;;;-0.94;100.00;101582.50;5049237;28;20451;-75
2021/11/23 02:35:54;;;;;;;0.20;0.10;;;;;;;-0.78;100.00;101573.53;5049103;28;20474;-75
2021/11/23 02:38:23;;;;;;;0.20;0.10;;;;;;;-1.04;100.00;101582.97;5042348;28;20543;-75
2021/11/23 02:40:49;;;;;;;0.20;0.10;;;;;;;-1.04;100.00;101562.09;5042138;28;20447;-75
2021/11/23 02:43:16;;;;;;;0.20;0.10;;;;;;;-1.06;100.00;101576.78;5043629;28;20447;-75
2021/11/23 02:45:44;;;;;;;0.20;0.10;;;;;;;-1.08;100.00;101581.06;5041458;28;20447;-75
2021/11/23 02:48:13;;;;;;;0.20;0.10;;;;;;;-1.10;100.00;101570.53;5048274;28;20470;-75
2021/11/23 02:50:44;;;;;;;0.20;0.10;;;;;;;-1.11;100.00;101575.69;5037117;28;20505;-75
2021/11/23 02:53:10;;;;;;;0.20;0.10;;;;;;;-1.34;100.00;101578.31;5063409;28;20571;-75
2021/11/23 02:55:37;;;;;;;0.20;0.10;;;;;;;-1.23;100.00;101576.13;5057093;28;20501;-76
2021/11/23 02:58:06;;;;;;;0.20;0.10;;;;;;;-1.22;100.00;101575.31;5044764;28;20900;-75
2021/11/23 03:00:34;;;;;;;0.20;0.10;;;;;;;-1.28;100.00;101570.72;5067191;28;20459;-74
2021/11/23 03:03:01;;;;;;;0.20;0.10;;;;;;;-1.38;100.00;101571.16;5070825;28;20458;-74
2021/11/23 03:05:28;;;;;;;0.20;0.10;;;;;;;-1.43;100.00;101571.81;5041767;28;20451;-74
2021/11/23 03:07:56;;;;;;;0.20;0.20;;;;;;;-1.54;100.00;101566.16;5043532;28;20801;-75
2021/11/23 03:10:25;;;;;;;0.20;0.10;;;;;;;-1.33;100.00;101567.06;5048839;28;20786;-75
2021/11/23 03:12:55;;;;;;;0.20;0.10;;;;;;;-1.57;100.00;101560.84;5046080;28;20451;-75
2021/11/23 03:15:23;;;;;;;0.20;0.20;;;;;;;-1.65;100.00;101568.31;5041724;28;20991;-75
2021/11/23 03:17:50;;;;;;;0.20;0.10;;;;;;;-1.54;100.00;101558.34;5043233;28;20870;-75
2021/11/23 03:20:19;;;;;;;0.20;0.10;;;;;;;-1.48;100.00;101569.03;5047296;28;20471;-75
2021/11/23 03:22:46;;;;;;;0.20;0.10;;;;;;;-1.55;100.00;101567.00;5046047;28;20483;-75
2021/11/23 03:25:13;;;;;;;0.20;0.10;;;;;;;-1.61;100.00;101567.66;5041589;28;20458;-77
2021/11/23 03:27:40;;;;;;;0.20;0.20;;;;;;;-1.79;100.00;101579.91;5041225;28;20448;-75
2021/11/23 03:30:09;;;;;;;0.20;0.10;;;;;;;-1.65;100.00;101572.66;5048037;28;20471;-75
2021/11/23 03:32:36;;;;;;;0.20;0.10;;;;;;;-1.56;100.00;101554.78;5038669;28;20482;-75
2021/11/23 03:35:04;;;;;;;0.20;0.10;;;;;;;-1.62;100.00;101555.44;5041847;28;20451;-75
2021/11/23 03:37:31;;;;;;;0.20;0.10;;;;;;;-1.49;100.00;101551.63;5041444;28;20487;-75
2021/11/23 03:39:58;;;;;;;0.20;0.10;;;;;;;-1.70;100.00;101567.25;5047492;28;20472;-76
2021/11/23 03:42:25;;;;;;;0.20;0.10;;;;;;;-1.70;100.00;101564.66;5048790;28;20451;-75
2021/11/23 03:44:58;;;;;;;0.20;0.10;;;;;;;-1.72;100.00;101558.50;5046692;28;20455;-75
2021/11/23 03:47:27;;;;;;;0.20;0.10;;;;;;;-1.69;100.00;101561.22;5047987;28;20439;-75
2021/11/23 03:49:55;;;;;;;0.20;0.10;;;;;;;-1.68;100.00;101573.41;5042456;28;20490;-75
2021/11/23 03:52:22;;;;;;;0.20;0.10;;;;;;;-1.69;100.00;101561.22;5043232;28;20460;-75
2021/11/23 03:54:49;;;;;;;0.20;0.10;;;;;;;-1.94;100.00;101569.72;5064980;28;20454;-75
2021/11/23 03:57:16;;;;;;;0.20;0.10;;;;;;;-1.93;100.00;101566.28;5040775;28;20483;-75
2021/11/23 03:59:47;;;;;;;0.20;0.10;;;;;;;-1.80;100.00;101559.88;5062327;28;20505;-75
2021/11/23 04:02:16;;;;;;;0.20;0.10;;;;;;;-1.79;100.00;101561.66;5057646;28;20473;-75
2021/11/23 04:04:43;;;;;;;0.20;0.10;;;;;;;-1.98;100.00;101567.81;5043805;28;20455;-75
2021/11/23 04:07:10;;;;;;;0.20;0.13;;;;;;;-1.99;100.00;101570.38;5047385;28;21068;-74
2021/11/23 04:09:36;;;;;;;0.20;0.10;;;;;;;-2.04;100.00;101558.88;5045600;28;20471;-75
2021/11/23 04:12:03;;;;;;;0.20;0.10;;;;;;;-2.02;100.00;101559.81;5040673;28;20933;-74
2021/11/23 04:14:31;;;;;;;0.20;0.10;;;;;;;-1.82;100.00;101565.03;5042650;28;20547;-75
2021/11/23 04:16:57;;;;;;;0.20;0.10;;;;;;;-1.95;100.00;101565.34;5038766;28;20467;-75
2021/11/23 04:19:24;;;;;;;0.20;0.10;;;;;;;-1.96;100.00;101566.16;5042298;28;20542;-75
2021/11/23 04:21:51;;;;;;;0.20;0.10;;;;;;;-1.92;100.00;101570.69;5047873;28;20451;-76
2021/11/23 04:24:18;;;;;;;0.20;0.10;;;;;;;-1.88;100.00;101558.69;5045413;28;20451;-76
2021/11/23 04:26:44;;;;;;;0.20;0.10;;;;;;;-2.05;100.00;101562.31;5040582;28;20808;-76
2021/11/23 04:29:11;;;;;;;0.20;0.10;;;;;;;-2.08;100.00;101574.34;5041054;28;21042;-76
2021/11/23 04:31:38;;;;;;;0.20;0.10;;;;;;;-2.05;100.00;101575.31;5052055;28;21006;-76
2021/11/23 04:34:04;;;;;;;0.20;0.10;;;;;;;-2.28;100.00;101572.59;5041976;28;20452;-76
2021/11/23 04:36:31;;;;;;;0.20;0.10;;;;;;;-2.06;100.00;101570.91;5046975;28;21010;-76
2021/11/23 04:38:58;;;;;;;0.20;0.10;;;;;;;-1.86;100.00;101570.06;5045241;28;20552;-76
2021/11/23 04:41:24;;;;;;;0.20;0.10;;;;;;;-1.67;100.00;101571.69;5040040;28;20485;-76
2021/11/23 04:43:52;;;;;;;0.20;0.10;;;;;;;-2.13;100.00;101569.78;5040961;28;20502;-76
2021/11/23 04:46:19;;;;;;;0.20;0.10;;;;;;;-1.84;100.00;101579.72;5047077;28;21007;-75
2021/11/23 04:48:46;;;;;;;0.20;0.10;;;;;;;-1.94;100.00;101582.75;5033725;28;20519;-75
2021/11/23 04:51:13;;;;;;;0.20;0.10;;;;;;;-2.15;100.00;101569.72;5046942;28;20456;-75
2021/11/23 04:53:39;;;;;;;0.20;0.10;;;;;;;-1.90;100.00;101583.78;5059854;28;20562;-76
2021/11/23 04:56:06;;;;;;;0.20;0.10;;;;;;;-1.91;100.00;101587.22;5047222;28;20840;-76
2021/11/23 04:58:33;;;;;;;0.20;0.10;;;;;;;-1.99;100.00;101592.09;5045285;28;20518;-75
2021/11/23 05:01:00;;;;;;;0.20;0.10;;;;;;;-2.06;100.00;101599.56;5059814;28;20821;-75
2021/11/23 05:03:26;;;;;;;0.20;0.10;;;;;;;-2.22;100.00;101591.09;5046542;28;20454;-75
2021/11/23 05:05:53;;;;;;;0.20;0.10;;;;;;;-2.15;100.00;101587.94;5039906;28;20497;-76
2021/11/23 05:08:20;;;;;;;0.20;0.10;;;;;;;-2.23;100.00;101588.41;5039422;28;20460;-75
2021/11/23 05:10:46;;;;;;;0.20;0.10;;;;;;;-2.22;100.00;101580.66;5052969;28;20451;-75
2021/11/23 05:13:13;;;;;;;0.20;0.10;;;;;;;-2.11;100.00;101570.72;5038334;28;20501;-75
2021/11/23 05:15:40;;;;;;;0.20;0.10;;;;;;;-2.05;100.00;101568.41;5044514;28;20452;-75
2021/11/23 05:18:06;;;;;;;0.20;0.10;;;;;;;-2.24;100.00;101571.91;5046043;28;20560;-76
2021/11/23 05:20:33;;;;;;;0.20;0.10;;;;;;;-2.05;100.00;101571.00;5039808;28;20497;-76
2021/11/23 05:22:59;;;;;;;1.23;1.23;;;;;;;-1.95;100.00;101574.88;5039140;28;20831;-75
2021/11/23 05:25:26;;;;;;;0.20;0.10;;;;;;;-1.70;100.00;101576.78;5045693;28;20451;-75
2021/11/23 05:27:53;;;;;;;0.20;0.10;;;;;;;-1.57;100.00;101569.53;5046569;28;20500;-76
2021/11/23 05:30:19;;;;;;;0.20;0.10;;;;;;;-1.72;100.00;101579.34;5045052;28;20525;-75
2021/11/23 05:32:46;;;;;;;0.20;0.10;;;;;;;-1.10;100.00;101573.16;5037862;28;20459;-73
2021/11/23 05:35:13;;;;;;;0.20;0.10;;;;;;;-1.47;100.00;101578.63;5043713;28;20455;-75
2021/11/23 05:37:40;;;;;;;0.20;0.10;;;;;;;-1.79;100.00;101586.00;5045630;28;20505;-75
2021/11/23 05:40:07;;;;;;;0.20;0.10;;;;;;;-1.96;100.00;101587.00;5040398;28;20839;-75
2021/11/23 05:42:34;;;;;;;0.20;0.10;;;;;;;-2.03;100.00;101584.09;5039056;28;20517;-75
2021/11/23 05:45:01;;;;;;;0.20;0.10;;;;;;;-1.89;100.00;101588.19;5044035;28;20452;-75
2021/11/23 05:47:28;;;;;;;0.20;0.10;;;;;;;-1.90;100.00;101581.19;5045647;28;20476;-75
2021/11/23 05:49:55;;;;;;;0.20;0.10;;;;;;;-2.19;100.00;101586.03;5040770;28;20474;-75
2021/11/23 05:52:21;;;;;;;0.20;0.10;;;;;;;-1.89;100.00;101594.28;5041546;28;20455;-76
2021/11/23 05:54:49;;;;;;;0.20;0.10;;;;;;;-1.89;100.00;101591.66;5063029;28;20526;-75
2021/11/23 05:57:16;;;;;;;0.20;0.10;;;;;;;-2.11;100.00;101591.56;5038586;28;20483;-75
2021/11/23 05:59:43;;;;;;;0.20;0.10;;;;;;;-2.02;100.00;101591.97;5060313;28;20490;-75
2021/11/23 06:02:10;;;;;;;0.20;0.10;;;;;;;-2.06;100.00;101590.03;5044591;28;20549;-75
2021/11/23 06:04:37;;;;;;;0.20;0.20;;;;;;;-1.90;100.00;101594.22;5042251;28;20463;-76
2021/11/23 06:07:04;;;;;;;0.20;0.20;;;;;;;-1.74;100.00;101603.56;5045575;28;20980;-75
2021/11/23 06:09:30;;;;;;;0.20;0.10;;;;;;;-2.01;100.00;101595.47;5041956;28;20466;-75
2021/11/23 06:11:57;;;;;;;0.20;0.10;;;;;;;-1.90;100.00;101599.41;5047641;28;20452;-75
2021/11/23 06:14:24;;;;;;;0.20;0.10;;;;;;;-2.00;100.00;101603.34;5042217;28;20447;-75
2021/11/23 06:16:50;;;;;;;0.20;0.10;;;;;;;-1.65;100.00;101606.53;5038422;28;20450;-75
2021/11/23 06:19:17;;;;;;;0.20;0.10;;;;;;;-1.71;100.00;101617.59;5041632;28;20495;-75
2021/11/23 06:21:45;;;;;;;0.20;0.10;;;;;;;-1.77;100.00;101619.97;5045853;28;20513;-75
2021/11/23 06:24:12;;;;;;;0.20;0.10;;;;;;;-1.70;100.00;101622.00;5042145;28;20450;-75
2021/11/23 06:26:38;;;;;;;0.80;0.80;;;;;;;-1.73;100.00;101616.66;5038898;28;20998;-75
2021/11/23 06:29:06;;;;;;;0.20;0.20;;;;;;;-1.74;100.00;101619.19;5040073;28;20459;-75
2021/11/23 06:31:32;;;;;;;0.20;0.10;;;;;;;-1.77;100.00;101625.19;5050284;28;20508;-75
2021/11/23 06:34:00;;;;;;;0.20;0.10;;;;;;;-1.81;100.00;101623.25;5041170;28;20498;-75
2021/11/23 06:36:27;;;;;;;0.20;0.10;;;;;;;-1.90;100.00;101620.25;5045254;28;20455;-76
2021/11/23 06:38:54;;;;;;;0.20;0.10;;;;;;;-1.87;100.00;101633.41;5042274;28;20581;-75
2021/11/23 06:41:20;;;;;;;0.20;0.10;;;;;;;-1.99;100.00;101635.47;5038870;28;20446;-75
2021/11/23 06:43:47;;;;;;;0.20;0.10;;;;;;;-1.96;100.00;101644.31;5051892;28;20454;-76
2021/11/23 06:46:13;;;;;;;0.20;0.10;;;;;;;-1.84;100.00;101637.03;5038353;28;20454;-75
2021/11/23 06:48:40;;;;;;;0.20;0.10;;;;;;;-1.96;100.00;101633.91;5039898;28;20466;-75
2021/11/23 06:51:07;;;;;;;0.20;0.10;;;;;;;-1.94;100.00;101647.88;5045322;28;20871;-75
2021/11/23 06:53:33;;;;;;;0.20;0.10;;;;;;;-2.02;100.00;101640.56;5055478;28;20524;-75
2021/11/23 06:56:00;;;;;;;0.20;0.10;;;;;;;-2.01;100.00;101642.34;5046431;28;20482;-75
2021/11/23 06:58:27;;;;;;;0.67;0.67;;;;;;;-2.16;100.00;101643.44;5043254;28;20531;-76
2021/11/23 07:00:53;;;;;;;0.20;0.10;;;;;;;-2.13;100.00;101642.69;5063213;28;20520;-75
2021/11/23 07:03:20;;;;;;;0.20;0.10;;;;;;;-2.03;100.00;101654.41;5051626;28;20962;-75
2021/11/23 07:05:47;;;;;;;0.20;0.10;;;;;;;-2.08;100.00;101662.00;5038792;28;20508;-75
2021/11/23 07:08:26;;;;;;;0.20;0.10;;;;;;;-2.12;100.00;101661.00;5041839;28;20546;-75
2021/11/23 07:10:53;;;;;;;0.23;0.17;;;;;;;-2.09;100.00;101662.84;5046966;28;20449;-76
2021/11/23 07:13:19;;;;;;;0.20;0.10;;;;;;;-2.05;100.00;101666.50;5047149;28;20447;-76
2021/11/23 07:15:46;;;;;;;0.20;0.10;;;;;;;-1.96;100.00;101672.97;5043252;28;20509;-75
2021/11/23 07:18:14;;;;;;;0.20;0.10;;;;;;;-1.93;100.00;101674.81;5041230;28;20498;-75
2021/11/23 07:20:41;;;;;;;0.50;0.50;;;;;;;-1.95;100.00;101666.94;5046226;28;20501;-76
2021/11/23 07:23:08;;;;;;;0.20;0.10;;;;;;;-2.03;100.00;101652.69;5047189;28;20483;-75
2021/11/23 07:25:35;;;;;;;0.20;0.10;;;;;;;-1.91;100.00;101662.78;5044090;28;20454;-75
2021/11/23 07:28:02;;;;;;;0.20;0.10;;;;;;;-1.87;100.00;101659.47;5052289;28;20951;-75
2021/11/23 07:30:28;;;;;;;0.20;0.10;;;;;;;-1.65;100.00;101661.25;5034987;28;20482;-76
2021/11/23 07:32:55;;;;;;;0.20;0.10;;;;;;;-1.63;100.00;101662.25;5047244;28;20451;-75
2021/11/23 07:35:23;;;;;;;0.20;0.10;;;;;;;-1.56;100.00;101670.38;5043840;28;20493;-75
2021/11/23 07:37:49;;;;;;;0.20;0.10;;;;;;;-1.61;100.00;101668.41;5041172;28;20448;-75
2021/11/23 07:40:16;;;;;;;0.20;0.10;;;;;;;-1.64;100.00;101669.19;5045310;28;20925;-75
2021/11/23 07:42:44;;;;;;;0.20;0.10;;;;;;;-1.60;100.00;101663.25;5048164;28;20493;-75
2021/11/23 07:45:31;;;;;;;0.20;0.10;;;;;;;-1.45;100.00;101672.56;5047280;28;20892;-75
2021/11/23 07:47:57;;;;;;;0.20;0.10;;;;;;;-1.30;100.00;101671.47;5041266;28;20951;-75
2021/11/23 07:50:24;;;;;;;1.97;1.73;;;;;;;-1.17;100.00;101675.47;5042090;28;20452;-76
2021/11/23 07:52:51;;;;;;;0.20;0.10;;;;;;;-1.03;100.00;101670.84;5059004;28;20446;-75
2021/11/23 07:55:18;;;;;;;0.20;0.10;;;;;;;-0.98;100.00;101672.78;5060663;28;21641;-75
2021/11/23 07:57:44;;;;;;;0.20;0.10;;;;;;;-0.99;100.00;101676.22;5040950;28;21113;-75
2021/11/23 08:00:12;;;;;;;0.20;0.10;;;;;;;-0.87;100.00;101677.56;5066356;28;20530;-75
2021/11/23 08:02:38;;;;;;;0.20;0.10;;;;;;;-0.78;100.00;101673.59;5052322;28;20451;-75
2021/11/23 08:05:05;;;;;;;0.20;0.10;;;;;;;-0.65;100.00;101669.75;5040934;28;20462;-76
2021/11/23 08:07:32;;;;;;;0.20;0.20;;;;;;;-0.61;100.00;101675.13;5047183;28;20506;-75
2021/11/23 08:09:59;;;;;;;0.20;0.10;;;;;;;-0.47;100.00;101677.41;5047769;28;20481;-76
2021/11/23 08:12:26;;;;;;;0.20;0.10;;;;;;;-0.36;100.00;101684.81;5040978;28;20451;-75
2021/11/23 08:14:53;;;;;;;0.20;0.10;;;;;;;-0.24;100.00;101684.38;5040751;28;20452;-75
2021/11/23 08:17:20;;;;;;;0.20;0.10;;;;;;;-0.28;100.00;101681.59;5046685;28;20586;-75
2021/11/23 08:19:46;;;;;;;0.20;0.10;;;;;;;-0.18;100.00;101687.22;5047287;28;20505;-76
2021/11/23 08:22:13;;;;;;;0.20;0.10;;;;;;;-0.20;100.00;101683.66;5040980;28;20455;-76
2021/11/23 08:24:40;;;;;;;0.20;0.10;;;;;;;-0.11;100.00;101688.34;5040450;28;20497;-76
2021/11/23 08:27:07;;;;;;;0.20;0.10;;;;;;;0.03;100.00;101687.13;5046648;28;20451;-75
2021/11/23 08:29:33;;;;;;;0.20;0.10;;;;;;;0.07;100.00;101689.03;5047147;28;20521;-75
2021/11/23 08:32:01;;;;;;;0.20;0.10;;;;;;;0.12;100.00;101690.06;5046263;28;20862;-75
2021/11/23 08:34:28;;;;;;;0.30;0.30;;;;;;;0.11;100.00;101688.28;5038729;28;20889;-76
2021/11/23 08:36:55;;;;;;;0.20;0.10;;;;;;;0.21;100.00;101694.75;5045469;28;20486;-76
2021/11/23 08:39:23;;;;;;;0.20;0.10;;;;;;;0.35;100.00;101688.28;5046733;28;21049;-75
2021/11/23 08:41:49;;;;;;;0.20;0.10;;;;;;;0.41;100.00;101682.38;5042089;28;20924;-75
2021/11/23 08:44:17;;;;;;;0.20;0.10;;;;;;;0.57;100.00;101692.53;5040073;28;20501;-76
2021/11/23 08:46:43;;;;;;;0.20;0.10;;;;;;;0.72;100.00;101692.19;5043792;28;20501;-76
2021/11/23 08:49:10;;;;;;;0.20;0.10;;;;;;;0.83;100.00;101702.19;5046657;28;20467;-75
2021/11/23 08:51:38;;;;;;;0.20;0.10;;;;;;;0.95;100.00;101699.03;5041973;28;20455;-76
2021/11/23 08:54:06;;;;;;;0.20;0.10;;;;;;;0.89;100.00;101702.38;5066745;28;20438;-75
2021/11/23 08:56:44;;;;;;;0.20;0.10;;;;;;;0.98;100.00;101703.53;5043061;28;20533;-76
2021/11/23 08:59:14;;;;;;;0.20;0.10;;;;;;;0.99;100.00;101690.47;5049873;28;20988;-76
2021/11/23 09:01:42;;;;;;;0.20;0.10;;;;;;;1.05;100.00;101702.88;5051901;28;20496;-75
2021/11/23 09:04:09;;;;;;;0.20;0.10;;;;;;;1.10;100.00;101698.69;5046326;28;20455;-75
2021/11/23 09:06:38;;;;;;;0.20;0.10;;;;;;;1.16;100.00;101711.97;5045862;28;20524;-76
2021/11/23 09:09:08;;;;;;;0.30;0.20;;;;;;;1.31;100.00;101703.72;5039719;28;20525;-76
2021/11/23 09:11:36;;;;;;;0.20;0.10;;;;;;;1.33;100.00;101700.28;5038417;28;20873;-75
2021/11/23 09:14:04;;;;;;;2.60;2.40;;;;;;;1.35;100.00;101700.34;5045790;28;20949;-75
2021/11/23 09:16:33;;;;;;;0.20;0.10;;;;;;;1.40;100.00;101697.03;5046039;28;21077;-75
2021/11/23 09:19:02;;;;;;;0.20;0.10;;;;;;;1.35;100.00;101706.47;5040479;28;20980;-76
2021/11/23 09:21:29;;;;;;;0.20;0.10;;;;;;;1.76;100.00;101706.84;5039345;28;20482;-76
2021/11/23 09:23:56;;;;;;;0.20;0.10;;;;;;;1.70;100.00;101697.09;5045086;28;20510;-75
2021/11/23 09:26:22;;;;;;;0.20;0.10;;;;;;;1.72;100.00;101707.59;5045989;28;20446;-76
2021/11/23 09:28:49;;;;;;;0.20;0.10;;;;;;;1.70;100.00;101712.81;5040125;28;20516;-76
2021/11/23 09:31:16;;;;;;;0.20;0.10;;;;;;;1.78;100.00;101705.16;5044418;28;20442;-75
2021/11/23 09:33:43;;;;;;;0.20;0.10;;;;;;;1.94;100.00;101712.66;5044339;28;20444;-76
2021/11/23 09:36:10;;;;;;;0.20;0.10;;;;;;;1.92;100.00;101710.81;5044705;28;20459;-76
2021/11/23 09:38:37;;;;;;;0.20;0.20;;;;;;;1.86;100.00;101705.41;5040984;28;20471;-75
2021/11/23 09:41:06;;;;;;;0.20;0.10;;;;;;;2.40;100.00;101705.19;5039402;28;20458;-75
2021/11/23 09:43:33;;;;;;;0.57;0.57;;;;;;;2.33;100.00;101706.75;5043347;28;20462;-75
2021/11/23 09:46:00;;;;;;;0.20;0.10;;;;;;;2.29;100.00;101697.03;5046010;28;20520;-76
2021/11/23 09:48:27;;;;;;;0.30;0.20;;;;;;;2.25;100.00;101708.28;5041450;28;20475;-75
2021/11/23 09:50:54;;;;;;;0.20;0.13;;;;;;;2.48;100.00;101696.69;5038940;28;20447;-76
2021/11/23 09:53:22;;;;;;;0.20;0.10;;;;;;;2.52;100.00;101705.53;5061920;28;20450;-76
2021/11/23 09:55:51;;;;;;;0.20;0.10;;;;;;;2.45;100.00;101701.84;5050562;28;20525;-76
2021/11/23 09:58:18;;;;;;;0.20;0.20;;;;;;;2.60;100.00;101699.66;5043502;28;20471;-76
2021/11/23 10:00:49;;;;;;;0.20;0.10;;;;;;;2.62;100.00;101703.19;5063206;28;20586;-76
2021/11/23 10:03:23;;;;;;;0.30;0.10;;;;;;;2.49;100.00;101687.09;5052390;28;20881;-76
2021/11/23 10:06:04;;;;;;;0.20;0.10;;;;;;;2.59;100.00;101691.72;5038991;28;20462;-76
2021/11/23 10:08:30;;;;;;;0.20;0.20;;;;;;;2.87;100.00;101683.69;5037551;28;21021;-76
2021/11/23 10:10:57;;;;;;;0.20;0.10;;;;;;;2.94;100.00;101692.63;5043774;28;20444;-76
2021/11/23 10:13:42;;;;;;;0.20;0.10;;;;;;;2.98;100.00;101684.84;5045527;28;20948;-75
2021/11/23 10:16:09;;;;;;;0.20;0.10;;;;;;;3.60;100.00;101673.16;5043173;28;20882;-75
2021/11/23 10:18:50;;;;;;;0.20;0.10;;;;;;;3.31;99.77;101678.66;5038484;28;20476;-76
2021/11/23 10:21:20;;;;;;;0.20;0.20;;;;;;;3.46;99.33;101675.50;5038769;28;20513;-76
2021/11/23 10:23:52;;;;;;;0.20;0.20;;;;;;;3.41;99.16;101666.59;5040214;28;20534;-77
2021/11/23 10:26:25;;;;;;;0.33;0.33;;;;;;;3.53;99.34;101665.13;5038862;28;20451;-75
2021/11/23 10:28:53;;;;;;;0.20;0.10;;;;;;;3.67;99.70;101660.16;5044082;28;20484;-76
2021/11/23 10:31:21;;;;;;;0.30;0.20;;;;;;;3.78;98.79;101658.66;5048793;28;20503;-76
2021/11/23 10:34:05;;;;;;;0.20;0.17;;;;;;;3.80;99.28;101662.22;5042420;28;20452;-76
2021/11/23 10:36:37;;;;;;;0.20;0.20;;;;;;;3.97;99.80;101645.88;5046184;28;20514;-76
2021/11/23 10:39:09;;;;;;;1.20;1.20;;;;;;;4.05;99.43;101646.94;5045189;28;20494;-76
2021/11/23 10:41:41;;;;;;;0.20;0.10;;;;;;;4.00;99.16;101641.59;5047661;28;20482;-76
2021/11/23 10:44:18;;;;;;;2.67;1.37;;;;;;;4.00;99.76;101643.34;5049441;28;20454;-76
2021/11/23 10:46:53;;;;;;;0.20;0.20;;;;;;;4.37;97.30;101647.53;5044962;28;20496;-77
2021/11/23 10:49:44;;;;;;;0.30;0.20;;;;;;;4.42;97.95;101645.91;5042422;28;20473;-76
2021/11/23 10:52:30;;;;;;;0.20;0.13;;;;;;;4.29;98.42;101636.00;5045443;28;20450;-73
2021/11/23 10:54:56;;;;;;;0.20;0.10;;;;;;;4.58;97.99;101640.03;5065860;28;20493;-74
2021/11/23 10:57:23;;;;;;;1.20;1.20;;;;;;;4.75;97.03;101632.44;5043422;28;20451;-73
2021/11/23 10:59:51;;;;;;;0.20;0.10;;;;;;;4.65;96.82;101630.50;5066243;28;20485;-74
2021/11/23 11:02:18;;;;;;;0.60;0.60;;;;;;;4.74;96.07;101626.28;5058863;28;20865;-74
2021/11/23 11:04:50;;;;;;;0.30;0.30;;;;;;;4.83;95.69;101630.81;5046866;28;20455;-74
2021/11/23 11:07:20;;;;;;;0.40;0.40;;;;;;;4.79;95.32;101628.09;5051095;28;20597;-74
2021/11/23 11:09:48;;;;;;;0.20;0.13;;;;;;;5.13;95.06;101621.63;5048609;28;20462;-76
2021/11/23 11:12:16;;;;;;;0.20;0.10;;;;;;;5.09;94.13;101617.19;5043598;28;20472;-76
2021/11/23 11:14:48;;;;;;;0.20;0.20;;;;;;;5.14;93.86;101618.13;5044325;28;20452;-77
2021/11/23 11:17:15;;;;;;;0.20;0.20;;;;;;;5.27;93.02;101607.78;5044423;28;20455;-74
2021/11/23 11:19:47;;;;;;;0.20;0.10;;;;;;;5.20;94.06;101605.91;5044033;28;20545;-74
2021/11/23 11:22:23;;;;;;;0.20;0.13;;;;;;;5.45;93.97;101601.88;5049434;28;20502;-74